sensor_id;sensor_type;location;lat;lon;timestamp;P1;durP1;ratioP1;P2;durP2;ratioP2
46290;SDS011;32023;44.444;26.006;2024-01-10T00:00:29;23.43;;;11.33;;
46290;SDS011;32023;44.444;26.006;2024-01-10T00:02:58;24.07;;;13.33;;
46290;SDS011;32023;44.444;26.006;2024-01-10T00:05:24;31.47;;;14.10;;
46290;SDS011;32023;44.444;26.006;2024-01-10T00:07:51;27.38;;;13.20;;
46290;SDS011;32023;44.444;26.006;2024-01-10T00:10:17;25.17;;;13.57;;
46290;SDS011;32023;44.444;26.006;2024-01-10T00:12:43;31.63;;;15.33;;
46290;SDS011;32023;44.444;26.006;2024-01-10T00:15:10;27.03;;;14.00;;
46290;SDS011;32023;44.444;26.006;2024-01-10T00:17:36;31.73;;;14.97;;
46290;SDS011;32023;44.444;26.006;2024-01-10T00:20:05;29.53;;;15.00;;
46290;SDS011;32023;44.444;26.006;2024-01-10T00:22:44;35.47;;;15.57;;
46290;SDS011;32023;44.444;26.006;2024-01-10T00:25:19;26.33;;;14.47;;
46290;SDS011;32023;44.444;26.006;2024-01-10T00:27:46;37.83;;;15.80;;
46290;SDS011;32023;44.444;26.006;2024-01-10T00:30:12;28.27;;;14.57;;
46290;SDS011;32023;44.444;26.006;2024-01-10T00:32:38;33.07;;;15.27;;
46290;SDS011;32023;44.444;26.006;2024-01-10T00:35:05;30.27;;;14.93;;
46290;SDS011;32023;44.444;26.006;2024-01-10T00:37:31;28.07;;;15.23;;
46290;SDS011;32023;44.444;26.006;2024-01-10T00:39:57;23.80;;;13.90;;
46290;SDS011;32023;44.444;26.006;2024-01-10T00:42:24;25.37;;;13.60;;
46290;SDS011;32023;44.444;26.006;2024-01-10T00:44:50;27.40;;;13.50;;
46290;SDS011;32023;44.444;26.006;2024-01-10T00:47:17;25.70;;;13.27;;
46290;SDS011;32023;44.444;26.006;2024-01-10T00:49:43;30.87;;;14.03;;
46290;SDS011;32023;44.444;26.006;2024-01-10T00:52:09;27.53;;;14.40;;
46290;SDS011;32023;44.444;26.006;2024-01-10T00:54:36;26.50;;;11.93;;
46290;SDS011;32023;44.444;26.006;2024-01-10T00:57:02;29.93;;;14.07;;
46290;SDS011;32023;44.444;26.006;2024-01-10T00:59:28;22.97;;;13.57;;
46290;SDS011;32023;44.444;26.006;2024-01-10T01:01:55;25.43;;;13.90;;
46290;SDS011;32023;44.444;26.006;2024-01-10T01:04:21;34.50;;;13.20;;
46290;SDS011;32023;44.444;26.006;2024-01-10T01:06:48;26.47;;;13.83;;
46290;SDS011;32023;44.444;26.006;2024-01-10T01:09:14;28.87;;;14.47;;
46290;SDS011;32023;44.444;26.006;2024-01-10T01:11:40;30.93;;;13.77;;
46290;SDS011;32023;44.444;26.006;2024-01-10T01:14:07;32.77;;;15.50;;
46290;SDS011;32023;44.444;26.006;2024-01-10T01:16:33;37.57;;;16.53;;
46290;SDS011;32023;44.444;26.006;2024-01-10T01:19:00;30.00;;;15.37;;
46290;SDS011;32023;44.444;26.006;2024-01-10T01:21:26;24.50;;;14.07;;
46290;SDS011;32023;44.444;26.006;2024-01-10T01:23:52;35.10;;;16.17;;
46290;SDS011;32023;44.444;26.006;2024-01-10T01:26:19;28.37;;;15.57;;
46290;SDS011;32023;44.444;26.006;2024-01-10T01:28:45;30.60;;;16.67;;
46290;SDS011;32023;44.444;26.006;2024-01-10T01:31:12;34.77;;;16.03;;
46290;SDS011;32023;44.444;26.006;2024-01-10T01:33:38;33.23;;;15.60;;
46290;SDS011;32023;44.444;26.006;2024-01-10T01:36:05;29.17;;;14.53;;
46290;SDS011;32023;44.444;26.006;2024-01-10T01:38:32;36.10;;;16.30;;
46290;SDS011;32023;44.444;26.006;2024-01-10T01:40:58;34.87;;;15.80;;
46290;SDS011;32023;44.444;26.006;2024-01-10T01:43:25;34.93;;;17.03;;
46290;SDS011;32023;44.444;26.006;2024-01-10T01:45:55;32.77;;;17.10;;
46290;SDS011;32023;44.444;26.006;2024-01-10T01:48:22;35.73;;;18.43;;
46290;SDS011;32023;44.444;26.006;2024-01-10T01:50:51;35.97;;;18.23;;
46290;SDS011;32023;44.444;26.006;2024-01-10T01:53:21;36.13;;;17.43;;
46290;SDS011;32023;44.444;26.006;2024-01-10T01:55:48;35.83;;;18.17;;
46290;SDS011;32023;44.444;26.006;2024-01-10T01:58:15;35.50;;;17.00;;
46290;SDS011;32023;44.444;26.006;2024-01-10T02:00:43;33.23;;;17.47;;
46290;SDS011;32023;44.444;26.006;2024-01-10T02:03:10;33.10;;;18.47;;
46290;SDS011;32023;44.444;26.006;2024-01-10T02:05:37;31.43;;;18.33;;
46290;SDS011;32023;44.444;26.006;2024-01-10T02:08:03;37.83;;;19.33;;
46290;SDS011;32023;44.444;26.006;2024-01-10T02:10:29;36.67;;;18.17;;
46290;SDS011;32023;44.444;26.006;2024-01-10T02:12:56;34.93;;;18.33;;
46290;SDS011;32023;44.444;26.006;2024-01-10T02:15:23;33.30;;;18.33;;
46290;SDS011;32023;44.444;26.006;2024-01-10T02:17:50;38.67;;;19.30;;
46290;SDS011;32023;44.444;26.006;2024-01-10T02:20:19;35.77;;;18.10;;
46290;SDS011;32023;44.444;26.006;2024-01-10T02:22:46;40.23;;;19.40;;
46290;SDS011;32023;44.444;26.006;2024-01-10T02:25:15;45.27;;;20.47;;
46290;SDS011;32023;44.444;26.006;2024-01-10T02:27:41;34.77;;;18.13;;
46290;SDS011;32023;44.444;26.006;2024-01-10T02:30:08;35.70;;;17.13;;
46290;SDS011;32023;44.444;26.006;2024-01-10T02:32:36;37.47;;;19.47;;
46290;SDS011;32023;44.444;26.006;2024-01-10T02:35:02;35.40;;;18.70;;
46290;SDS011;32023;44.444;26.006;2024-01-10T02:37:29;32.77;;;18.57;;
46290;SDS011;32023;44.444;26.006;2024-01-10T02:39:58;40.47;;;19.30;;
46290;SDS011;32023;44.444;26.006;2024-01-10T02:42:26;37.60;;;18.37;;
46290;SDS011;32023;44.444;26.006;2024-01-10T02:44:53;36.30;;;17.53;;
46290;SDS011;32023;44.444;26.006;2024-01-10T02:47:19;34.10;;;19.23;;
46290;SDS011;32023;44.444;26.006;2024-01-10T02:49:46;28.13;;;14.90;;
46290;SDS011;32023;44.444;26.006;2024-01-10T02:52:12;39.70;;;20.23;;
46290;SDS011;32023;44.444;26.006;2024-01-10T02:54:38;35.90;;;18.83;;
46290;SDS011;32023;44.444;26.006;2024-01-10T02:57:05;35.97;;;19.13;;
46290;SDS011;32023;44.444;26.006;2024-01-10T02:59:31;33.30;;;17.43;;
46290;SDS011;32023;44.444;26.006;2024-01-10T03:01:57;47.73;;;20.53;;
46290;SDS011;32023;44.444;26.006;2024-01-10T03:04:24;40.70;;;20.53;;
46290;SDS011;32023;44.444;26.006;2024-01-10T03:06:50;39.60;;;19.57;;
46290;SDS011;32023;44.444;26.006;2024-01-10T03:09:16;41.90;;;19.80;;
46290;SDS011;32023;44.444;26.006;2024-01-10T03:11:47;39.27;;;20.40;;
46290;SDS011;32023;44.444;26.006;2024-01-10T03:14:13;42.30;;;19.80;;
46290;SDS011;32023;44.444;26.006;2024-01-10T03:16:40;45.37;;;20.53;;
46290;SDS011;32023;44.444;26.006;2024-01-10T03:19:06;42.40;;;20.13;;
46290;SDS011;32023;44.444;26.006;2024-01-10T03:21:32;37.27;;;19.03;;
46290;SDS011;32023;44.444;26.006;2024-01-10T03:23:59;53.30;;;22.47;;
46290;SDS011;32023;44.444;26.006;2024-01-10T03:26:27;42.30;;;19.87;;
46290;SDS011;32023;44.444;26.006;2024-01-10T03:28:55;39.37;;;19.70;;
46290;SDS011;32023;44.444;26.006;2024-01-10T03:31:22;46.63;;;22.17;;
46290;SDS011;32023;44.444;26.006;2024-01-10T03:33:49;47.23;;;21.30;;
46290;SDS011;32023;44.444;26.006;2024-01-10T03:36:16;48.57;;;23.17;;
46290;SDS011;32023;44.444;26.006;2024-01-10T03:38:43;45.27;;;21.83;;
46290;SDS011;32023;44.444;26.006;2024-01-10T03:41:17;43.90;;;21.27;;
46290;SDS011;32023;44.444;26.006;2024-01-10T03:46:10;46.50;;;20.77;;
46290;SDS011;32023;44.444;26.006;2024-01-10T03:48:37;49.50;;;23.53;;
46290;SDS011;32023;44.444;26.006;2024-01-10T03:51:12;46.63;;;21.43;;
46290;SDS011;32023;44.444;26.006;2024-01-10T03:53:43;48.30;;;22.90;;
46290;SDS011;32023;44.444;26.006;2024-01-10T03:56:11;48.57;;;21.23;;
46290;SDS011;32023;44.444;26.006;2024-01-10T03:58:49;49.33;;;22.83;;
46290;SDS011;32023;44.444;26.006;2024-01-10T04:01:15;43.00;;;20.30;;
46290;SDS011;32023;44.444;26.006;2024-01-10T04:03:41;45.47;;;22.93;;
46290;SDS011;32023;44.444;26.006;2024-01-10T04:06:09;43.97;;;21.07;;
46290;SDS011;32023;44.444;26.006;2024-01-10T04:08:35;51.80;;;24.13;;
46290;SDS011;32023;44.444;26.006;2024-01-10T04:11:02;48.70;;;24.87;;
46290;SDS011;32023;44.444;26.006;2024-01-10T04:13:29;51.03;;;25.20;;
46290;SDS011;32023;44.444;26.006;2024-01-10T04:15:55;46.57;;;24.13;;
46290;SDS011;32023;44.444;26.006;2024-01-10T04:18:22;48.23;;;21.67;;
46290;SDS011;32023;44.444;26.006;2024-01-10T04:20:49;50.00;;;23.17;;
46290;SDS011;32023;44.444;26.006;2024-01-10T04:23:15;50.00;;;23.37;;
46290;SDS011;32023;44.444;26.006;2024-01-10T04:25:42;43.00;;;21.20;;
46290;SDS011;32023;44.444;26.006;2024-01-10T04:28:08;43.07;;;22.10;;
46290;SDS011;32023;44.444;26.006;2024-01-10T04:30:37;49.93;;;24.17;;
46290;SDS011;32023;44.444;26.006;2024-01-10T04:33:04;46.50;;;21.80;;
46290;SDS011;32023;44.444;26.006;2024-01-10T04:35:30;44.50;;;22.27;;
46290;SDS011;32023;44.444;26.006;2024-01-10T04:37:57;47.63;;;24.33;;
46290;SDS011;32023;44.444;26.006;2024-01-10T04:40:24;52.50;;;25.10;;
46290;SDS011;32023;44.444;26.006;2024-01-10T04:42:50;48.43;;;24.47;;
46290;SDS011;32023;44.444;26.006;2024-01-10T04:45:17;46.97;;;21.80;;
46290;SDS011;32023;44.444;26.006;2024-01-10T04:47:44;55.73;;;26.13;;
46290;SDS011;32023;44.444;26.006;2024-01-10T04:50:10;45.63;;;22.73;;
46290;SDS011;32023;44.444;26.006;2024-01-10T04:52:36;53.37;;;24.30;;
46290;SDS011;32023;44.444;26.006;2024-01-10T04:55:04;55.43;;;24.00;;
46290;SDS011;32023;44.444;26.006;2024-01-10T04:57:31;50.63;;;24.63;;
46290;SDS011;32023;44.444;26.006;2024-01-10T04:59:57;43.40;;;21.20;;
46290;SDS011;32023;44.444;26.006;2024-01-10T05:02:23;57.87;;;26.83;;
46290;SDS011;32023;44.444;26.006;2024-01-10T05:04:50;50.77;;;22.80;;
46290;SDS011;32023;44.444;26.006;2024-01-10T05:07:20;54.43;;;25.70;;
46290;SDS011;32023;44.444;26.006;2024-01-10T05:09:46;50.63;;;24.57;;
46290;SDS011;32023;44.444;26.006;2024-01-10T05:12:21;55.87;;;25.17;;
46290;SDS011;32023;44.444;26.006;2024-01-10T05:14:57;58.77;;;26.20;;
46290;SDS011;32023;44.444;26.006;2024-01-10T05:17:27;61.00;;;26.07;;
46290;SDS011;32023;44.444;26.006;2024-01-10T05:19:56;47.63;;;23.03;;
46290;SDS011;32023;44.444;26.006;2024-01-10T05:22:22;49.73;;;22.97;;
46290;SDS011;32023;44.444;26.006;2024-01-10T05:24:52;54.73;;;27.80;;
46290;SDS011;32023;44.444;26.006;2024-01-10T05:27:18;57.97;;;27.63;;
46290;SDS011;32023;44.444;26.006;2024-01-10T05:29:48;58.27;;;27.13;;
46290;SDS011;32023;44.444;26.006;2024-01-10T05:32:17;58.40;;;26.93;;
46290;SDS011;32023;44.444;26.006;2024-01-10T05:34:44;60.93;;;26.57;;
46290;SDS011;32023;44.444;26.006;2024-01-10T05:37:11;56.87;;;26.50;;
46290;SDS011;32023;44.444;26.006;2024-01-10T05:39:40;59.53;;;26.47;;
46290;SDS011;32023;44.444;26.006;2024-01-10T05:42:06;63.60;;;29.53;;
46290;SDS011;32023;44.444;26.006;2024-01-10T05:44:36;56.37;;;28.83;;
46290;SDS011;32023;44.444;26.006;2024-01-10T05:47:08;62.50;;;28.07;;
46290;SDS011;32023;44.444;26.006;2024-01-10T05:49:35;59.93;;;28.90;;
46290;SDS011;32023;44.444;26.006;2024-01-10T05:52:04;68.57;;;29.43;;
46290;SDS011;32023;44.444;26.006;2024-01-10T05:54:30;64.73;;;29.07;;
46290;SDS011;32023;44.444;26.006;2024-01-10T05:56:57;58.70;;;25.70;;
46290;SDS011;32023;44.444;26.006;2024-01-10T05:59:28;62.13;;;28.10;;
46290;SDS011;32023;44.444;26.006;2024-01-10T06:01:56;68.93;;;29.47;;
46290;SDS011;32023;44.444;26.006;2024-01-10T06:04:26;58.67;;;27.60;;
46290;SDS011;32023;44.444;26.006;2024-01-10T06:06:53;66.43;;;28.90;;
46290;SDS011;32023;44.444;26.006;2024-01-10T06:09:19;67.47;;;30.17;;
46290;SDS011;32023;44.444;26.006;2024-01-10T06:11:50;78.03;;;33.23;;
46290;SDS011;32023;44.444;26.006;2024-01-10T06:14:29;76.07;;;34.33;;
46290;SDS011;32023;44.444;26.006;2024-01-10T06:16:56;66.43;;;29.37;;
46290;SDS011;32023;44.444;26.006;2024-01-10T06:19:25;68.43;;;32.83;;
46290;SDS011;32023;44.444;26.006;2024-01-10T06:21:56;58.53;;;28.53;;
46290;SDS011;32023;44.444;26.006;2024-01-10T06:24:23;69.23;;;31.33;;
46290;SDS011;32023;44.444;26.006;2024-01-10T06:26:57;66.60;;;32.87;;
46290;SDS011;32023;44.444;26.006;2024-01-10T06:29:24;67.20;;;29.67;;
46290;SDS011;32023;44.444;26.006;2024-01-10T06:31:56;67.83;;;31.43;;
46290;SDS011;32023;44.444;26.006;2024-01-10T06:34:23;67.13;;;31.10;;
46290;SDS011;32023;44.444;26.006;2024-01-10T06:36:49;62.33;;;28.90;;
46290;SDS011;32023;44.444;26.006;2024-01-10T06:39:16;64.80;;;29.83;;
46290;SDS011;32023;44.444;26.006;2024-01-10T06:41:48;64.97;;;29.83;;
46290;SDS011;32023;44.444;26.006;2024-01-10T06:44:15;66.83;;;33.33;;
46290;SDS011;32023;44.444;26.006;2024-01-10T06:46:45;57.22;;;27.92;;
46290;SDS011;32023;44.444;26.006;2024-01-10T06:49:11;61.22;;;30.60;;
46290;SDS011;32023;44.444;26.006;2024-01-10T06:51:38;55.55;;;28.90;;
46290;SDS011;32023;44.444;26.006;2024-01-10T06:54:07;52.90;;;26.15;;
46290;SDS011;32023;44.444;26.006;2024-01-10T06:56:34;56.45;;;27.83;;
46290;SDS011;32023;44.444;26.006;2024-01-10T06:59:00;54.47;;;25.63;;
46290;SDS011;32023;44.444;26.006;2024-01-10T07:01:30;50.08;;;27.00;;
46290;SDS011;32023;44.444;26.006;2024-01-10T07:03:56;47.47;;;26.38;;
46290;SDS011;32023;44.444;26.006;2024-01-10T07:06:22;42.88;;;23.25;;
46290;SDS011;32023;44.444;26.006;2024-01-10T07:08:51;45.90;;;23.80;;
46290;SDS011;32023;44.444;26.006;2024-01-10T07:11:18;46.78;;;24.23;;
46290;SDS011;32023;44.444;26.006;2024-01-10T07:13:45;47.55;;;23.77;;
46290;SDS011;32023;44.444;26.006;2024-01-10T07:16:14;39.85;;;21.98;;
46290;SDS011;32023;44.444;26.006;2024-01-10T07:18:53;51.33;;;22.70;;
46290;SDS011;32023;44.444;26.006;2024-01-10T07:21:19;43.95;;;21.55;;
46290;SDS011;32023;44.444;26.006;2024-01-10T07:23:46;42.55;;;22.85;;
46290;SDS011;32023;44.444;26.006;2024-01-10T07:26:17;42.15;;;21.42;;
46290;SDS011;32023;44.444;26.006;2024-01-10T07:28:49;38.30;;;19.98;;
46290;SDS011;32023;44.444;26.006;2024-01-10T07:31:16;42.65;;;20.85;;
46290;SDS011;32023;44.444;26.006;2024-01-10T07:33:42;40.10;;;20.80;;
46290;SDS011;32023;44.444;26.006;2024-01-10T07:36:08;39.63;;;19.92;;
46290;SDS011;32023;44.444;26.006;2024-01-10T07:38:43;40.85;;;20.08;;
46290;SDS011;32023;44.444;26.006;2024-01-10T07:41:11;37.00;;;19.30;;
46290;SDS011;32023;44.444;26.006;2024-01-10T07:43:38;43.13;;;19.20;;
46290;SDS011;32023;44.444;26.006;2024-01-10T07:46:11;37.55;;;18.95;;
46290;SDS011;32023;44.444;26.006;2024-01-10T07:48:38;35.75;;;19.63;;
46290;SDS011;32023;44.444;26.006;2024-01-10T07:51:07;36.05;;;18.55;;
46290;SDS011;32023;44.444;26.006;2024-01-10T07:53:35;34.63;;;18.60;;
46290;SDS011;32023;44.444;26.006;2024-01-10T07:56:02;38.47;;;18.17;;
46290;SDS011;32023;44.444;26.006;2024-01-10T07:58:29;35.63;;;19.00;;
46290;SDS011;32023;44.444;26.006;2024-01-10T08:01:04;31.88;;;17.35;;
46290;SDS011;32023;44.444;26.006;2024-01-10T08:03:30;32.95;;;18.42;;
46290;SDS011;32023;44.444;26.006;2024-01-10T08:05:58;34.55;;;18.58;;
46290;SDS011;32023;44.444;26.006;2024-01-10T08:08:27;33.40;;;17.05;;
46290;SDS011;32023;44.444;26.006;2024-01-10T08:10:55;31.98;;;18.65;;
46290;SDS011;32023;44.444;26.006;2024-01-10T08:13:22;33.10;;;17.88;;
46290;SDS011;32023;44.444;26.006;2024-01-10T08:15:48;34.72;;;18.13;;
46290;SDS011;32023;44.444;26.006;2024-01-10T08:18:14;29.17;;;17.20;;
46290;SDS011;32023;44.444;26.006;2024-01-10T08:20:41;32.42;;;17.92;;
46290;SDS011;32023;44.444;26.006;2024-01-10T08:23:07;32.67;;;17.23;;
46290;SDS011;32023;44.444;26.006;2024-01-10T08:25:34;33.15;;;18.23;;
46290;SDS011;32023;44.444;26.006;2024-01-10T08:28:00;31.33;;;17.30;;
46290;SDS011;32023;44.444;26.006;2024-01-10T08:30:27;33.20;;;18.25;;
46290;SDS011;32023;44.444;26.006;2024-01-10T08:32:54;31.20;;;17.98;;
46290;SDS011;32023;44.444;26.006;2024-01-10T08:35:21;33.10;;;17.33;;
46290;SDS011;32023;44.444;26.006;2024-01-10T08:37:47;30.92;;;17.58;;
46290;SDS011;32023;44.444;26.006;2024-01-10T08:40:14;32.97;;;18.00;;
46290;SDS011;32023;44.444;26.006;2024-01-10T08:42:45;30.60;;;16.75;;
46290;SDS011;32023;44.444;26.006;2024-01-10T08:45:12;34.50;;;18.33;;
46290;SDS011;32023;44.444;26.006;2024-01-10T08:47:40;29.70;;;15.90;;
46290;SDS011;32023;44.444;26.006;2024-01-10T08:50:06;27.73;;;16.50;;
46290;SDS011;32023;44.444;26.006;2024-01-10T08:52:36;30.40;;;15.93;;
46290;SDS011;32023;44.444;26.006;2024-01-10T08:55:06;26.90;;;15.68;;
46290;SDS011;32023;44.444;26.006;2024-01-10T08:57:33;32.00;;;16.48;;
46290;SDS011;32023;44.444;26.006;2024-01-10T08:59:59;28.02;;;15.25;;
46290;SDS011;32023;44.444;26.006;2024-01-10T09:02:36;27.05;;;16.30;;
46290;SDS011;32023;44.444;26.006;2024-01-10T09:05:03;29.13;;;14.35;;
46290;SDS011;32023;44.444;26.006;2024-01-10T09:07:36;27.15;;;15.35;;
46290;SDS011;32023;44.444;26.006;2024-01-10T09:10:07;24.27;;;14.65;;
46290;SDS011;32023;44.444;26.006;2024-01-10T09:12:34;28.70;;;14.70;;
46290;SDS011;32023;44.444;26.006;2024-01-10T09:15:01;24.70;;;14.32;;
46290;SDS011;32023;44.444;26.006;2024-01-10T09:17:38;24.65;;;13.18;;
46290;SDS011;32023;44.444;26.006;2024-01-10T09:23:07;24.73;;;13.30;;
46290;SDS011;32023;44.444;26.006;2024-01-10T09:25:38;26.98;;;12.23;;
46290;SDS011;32023;44.444;26.006;2024-01-10T09:31:18;18.17;;;10.98;;
46290;SDS011;32023;44.444;26.006;2024-01-10T09:33:45;20.85;;;11.80;;
46290;SDS011;32023;44.444;26.006;2024-01-10T09:36:36;20.40;;;11.65;;
46290;SDS011;32023;44.444;26.006;2024-01-10T09:42:26;19.83;;;10.43;;
46290;SDS011;32023;44.444;26.006;2024-01-10T09:45:31;18.55;;;10.80;;
46290;SDS011;32023;44.444;26.006;2024-01-10T09:48:22;21.10;;;11.80;;
46290;SDS011;32023;44.444;26.006;2024-01-10T09:50:56;19.15;;;11.25;;
46290;SDS011;32023;44.444;26.006;2024-01-10T10:02:40;15.27;;;7.55;;
46290;SDS011;32023;44.444;26.006;2024-01-10T10:05:17;10.00;;;6.55;;
46290;SDS011;32023;44.444;26.006;2024-01-10T10:07:50;11.60;;;6.32;;
46290;SDS011;32023;44.444;26.006;2024-01-10T10:10:29;13.82;;;6.65;;
46290;SDS011;32023;44.444;26.006;2024-01-10T10:13:01;8.07;;;5.75;;
46290;SDS011;32023;44.444;26.006;2024-01-10T10:15:31;10.25;;;6.53;;
46290;SDS011;32023;44.444;26.006;2024-01-10T10:18:42;14.90;;;8.73;;
46290;SDS011;32023;44.444;26.006;2024-01-10T10:21:15;9.68;;;6.50;;
46290;SDS011;32023;44.444;26.006;2024-01-10T10:23:42;11.05;;;7.25;;
46290;SDS011;32023;44.444;26.006;2024-01-10T10:26:22;9.48;;;6.35;;
46290;SDS011;32023;44.444;26.006;2024-01-10T10:28:49;8.95;;;6.05;;
46290;SDS011;32023;44.444;26.006;2024-01-10T10:31:18;12.38;;;6.50;;
46290;SDS011;32023;44.444;26.006;2024-01-10T10:33:52;11.48;;;6.40;;
46290;SDS011;32023;44.444;26.006;2024-01-10T10:36:20;10.32;;;6.82;;
46290;SDS011;32023;44.444;26.006;2024-01-10T10:38:49;10.60;;;6.25;;
46290;SDS011;32023;44.444;26.006;2024-01-10T10:41:28;10.25;;;5.72;;
46290;SDS011;32023;44.444;26.006;2024-01-10T10:44:02;8.05;;;5.50;;
46290;SDS011;32023;44.444;26.006;2024-01-10T10:46:37;7.00;;;5.45;;
46290;SDS011;32023;44.444;26.006;2024-01-10T10:49:18;10.35;;;6.20;;
46290;SDS011;32023;44.444;26.006;2024-01-10T10:51:59;10.25;;;5.50;;
46290;SDS011;32023;44.444;26.006;2024-01-10T10:54:34;7.38;;;4.65;;
46290;SDS011;32023;44.444;26.006;2024-01-10T10:57:04;7.40;;;5.55;;
46290;SDS011;32023;44.444;26.006;2024-01-10T10:59:51;9.88;;;5.32;;
46290;SDS011;32023;44.444;26.006;2024-01-10T11:02:32;9.25;;;5.65;;
46290;SDS011;32023;44.444;26.006;2024-01-10T11:05:12;10.32;;;4.93;;
46290;SDS011;32023;44.444;26.006;2024-01-10T11:07:41;7.95;;;5.80;;
46290;SDS011;32023;44.444;26.006;2024-01-10T11:10:17;6.93;;;4.97;;
46290;SDS011;32023;44.444;26.006;2024-01-10T11:24:42;9.73;;;5.80;;
46290;SDS011;32023;44.444;26.006;2024-01-10T11:27:12;8.30;;;5.68;;
46290;SDS011;32023;44.444;26.006;2024-01-10T11:29:42;7.40;;;5.50;;
46290;SDS011;32023;44.444;26.006;2024-01-10T11:32:14;8.63;;;5.35;;
46290;SDS011;32023;44.444;26.006;2024-01-10T11:40:08;7.13;;;5.07;;
46290;SDS011;32023;44.444;26.006;2024-01-10T11:48:00;9.15;;;5.88;;
46290;SDS011;32023;44.444;26.006;2024-01-10T11:50:39;8.20;;;6.22;;
46290;SDS011;32023;44.444;26.006;2024-01-10T11:53:09;9.35;;;5.43;;
46290;SDS011;32023;44.444;26.006;2024-01-10T11:55:52;11.07;;;6.25;;
46290;SDS011;32023;44.444;26.006;2024-01-10T11:58:27;10.02;;;5.78;;
46290;SDS011;32023;44.444;26.006;2024-01-10T12:01:29;6.43;;;4.85;;
46290;SDS011;32023;44.444;26.006;2024-01-10T12:03:59;8.63;;;5.88;;
46290;SDS011;32023;44.444;26.006;2024-01-10T12:06:27;9.48;;;5.53;;
46290;SDS011;32023;44.444;26.006;2024-01-10T12:09:00;8.65;;;5.50;;
46290;SDS011;32023;44.444;26.006;2024-01-10T12:11:33;8.93;;;6.28;;
46290;SDS011;32023;44.444;26.006;2024-01-10T12:14:02;7.13;;;5.22;;
46290;SDS011;32023;44.444;26.006;2024-01-10T12:16:37;9.05;;;5.57;;
46290;SDS011;32023;44.444;26.006;2024-01-10T12:19:10;7.82;;;5.03;;
46290;SDS011;32023;44.444;26.006;2024-01-10T12:21:40;7.13;;;5.45;;
46290;SDS011;32023;44.444;26.006;2024-01-10T12:24:08;7.38;;;5.00;;
46290;SDS011;32023;44.444;26.006;2024-01-10T12:27:19;8.70;;;5.68;;
46290;SDS011;32023;44.444;26.006;2024-01-10T12:29:28;10.68;;;5.97;;
46290;SDS011;32023;44.444;26.006;2024-01-10T12:31:55;9.18;;;5.60;;
46290;SDS011;32023;44.444;26.006;2024-01-10T12:34:24;7.32;;;5.53;;
46290;SDS011;32023;44.444;26.006;2024-01-10T12:36:54;13.35;;;5.90;;
46290;SDS011;32023;44.444;26.006;2024-01-10T12:39:20;8.38;;;5.78;;
46290;SDS011;32023;44.444;26.006;2024-01-10T12:41:51;8.77;;;5.90;;
46290;SDS011;32023;44.444;26.006;2024-01-10T12:44:22;13.55;;;5.95;;
46290;SDS011;32023;44.444;26.006;2024-01-10T12:46:55;10.23;;;6.22;;
46290;SDS011;32023;44.444;26.006;2024-01-10T12:52:32;13.23;;;5.95;;
46290;SDS011;32023;44.444;26.006;2024-01-10T12:57:53;17.93;;;6.60;;
46290;SDS011;32023;44.444;26.006;2024-01-10T13:00:29;9.38;;;5.47;;
46290;SDS011;32023;44.444;26.006;2024-01-10T13:02:58;12.18;;;5.80;;
46290;SDS011;32023;44.444;26.006;2024-01-10T13:05:32;9.68;;;5.07;;
46290;SDS011;32023;44.444;26.006;2024-01-10T13:08:08;7.97;;;4.95;;
46290;SDS011;32023;44.444;26.006;2024-01-10T13:10:53;9.98;;;5.00;;
46290;SDS011;32023;44.444;26.006;2024-01-10T13:13:19;9.45;;;5.20;;
46290;SDS011;32023;44.444;26.006;2024-01-10T13:15:47;8.85;;;4.90;;
46290;SDS011;32023;44.444;26.006;2024-01-10T13:18:14;11.80;;;5.82;;
46290;SDS011;32023;44.444;26.006;2024-01-10T13:20:41;10.88;;;5.32;;
46290;SDS011;32023;44.444;26.006;2024-01-10T13:23:08;12.15;;;5.07;;
46290;SDS011;32023;44.444;26.006;2024-01-10T13:25:35;8.20;;;5.70;;
46290;SDS011;32023;44.444;26.006;2024-01-10T13:28:04;13.80;;;5.07;;
46290;SDS011;32023;44.444;26.006;2024-01-10T13:30:38;8.88;;;5.15;;
46290;SDS011;32023;44.444;26.006;2024-01-10T13:33:06;9.02;;;5.45;;
46290;SDS011;32023;44.444;26.006;2024-01-10T13:42:23;9.25;;;5.25;;
46290;SDS011;32023;44.444;26.006;2024-01-10T13:48:16;12.02;;;5.85;;
46290;SDS011;32023;44.444;26.006;2024-01-10T13:50:43;11.50;;;6.82;;
46290;SDS011;32023;44.444;26.006;2024-01-10T13:53:10;14.10;;;7.07;;
46290;SDS011;32023;44.444;26.006;2024-01-10T13:55:38;15.13;;;6.78;;
46290;SDS011;32023;44.444;26.006;2024-01-10T13:58:15;13.52;;;6.78;;
46290;SDS011;32023;44.444;26.006;2024-01-10T14:00:51;18.15;;;6.90;;
46290;SDS011;32023;44.444;26.006;2024-01-10T14:06:27;12.38;;;6.72;;
46290;SDS011;32023;44.444;26.006;2024-01-10T14:08:56;10.27;;;6.60;;
46290;SDS011;32023;44.444;26.006;2024-01-10T14:14:56;12.45;;;6.68;;
46290;SDS011;32023;44.444;26.006;2024-01-10T14:17:35;12.25;;;7.25;;
46290;SDS011;32023;44.444;26.006;2024-01-10T14:22:50;18.60;;;8.40;;
46290;SDS011;32023;44.444;26.006;2024-01-10T14:25:19;20.13;;;8.88;;
46290;SDS011;32023;44.444;26.006;2024-01-10T14:30:48;14.82;;;6.90;;
46290;SDS011;32023;44.444;26.006;2024-01-10T14:36:10;14.57;;;6.15;;
46290;SDS011;32023;44.444;26.006;2024-01-10T14:39:12;15.23;;;6.70;;
46290;SDS011;32023;44.444;26.006;2024-01-10T14:41:50;9.70;;;6.00;;
46290;SDS011;32023;44.444;26.006;2024-01-10T14:44:37;14.45;;;7.90;;
46290;SDS011;32023;44.444;26.006;2024-01-10T14:47:14;15.73;;;6.82;;
46290;SDS011;32023;44.444;26.006;2024-01-10T14:49:55;17.63;;;6.25;;
46290;SDS011;32023;44.444;26.006;2024-01-10T14:52:44;14.70;;;6.22;;
46290;SDS011;32023;44.444;26.006;2024-01-10T14:55:19;11.93;;;6.32;;
46290;SDS011;32023;44.444;26.006;2024-01-10T14:57:59;13.57;;;6.65;;
46290;SDS011;32023;44.444;26.006;2024-01-10T15:02:59;13.20;;;6.03;;
46290;SDS011;32023;44.444;26.006;2024-01-10T15:05:26;11.32;;;6.43;;
46290;SDS011;32023;44.444;26.006;2024-01-10T15:07:52;15.57;;;6.72;;
46290;SDS011;32023;44.444;26.006;2024-01-10T15:10:22;11.82;;;6.25;;
46290;SDS011;32023;44.444;26.006;2024-01-10T15:13:03;17.55;;;6.75;;
46290;SDS011;32023;44.444;26.006;2024-01-10T15:15:56;13.32;;;7.43;;
46290;SDS011;32023;44.444;26.006;2024-01-10T15:21:25;15.15;;;7.90;;
46290;SDS011;32023;44.444;26.006;2024-01-10T15:24:06;13.70;;;6.80;;
46290;SDS011;32023;44.444;26.006;2024-01-10T15:27:08;10.40;;;5.97;;
46290;SDS011;32023;44.444;26.006;2024-01-10T15:35:23;11.70;;;5.43;;
46290;SDS011;32023;44.444;26.006;2024-01-10T15:38:02;12.77;;;5.95;;
46290;SDS011;32023;44.444;26.006;2024-01-10T15:40:34;14.05;;;5.72;;
46290;SDS011;32023;44.444;26.006;2024-01-10T15:43:16;12.02;;;5.93;;
46290;SDS011;32023;44.444;26.006;2024-01-10T15:46:17;15.68;;;7.55;;
46290;SDS011;32023;44.444;26.006;2024-01-10T15:49:19;15.07;;;6.75;;
46290;SDS011;32023;44.444;26.006;2024-01-10T15:51:51;16.13;;;6.95;;
46290;SDS011;32023;44.444;26.006;2024-01-10T15:54:28;13.60;;;6.68;;
46290;SDS011;32023;44.444;26.006;2024-01-10T15:57:02;15.40;;;7.32;;